Airfield :
LOGIN :

Register | Disclaimer

   EN    FR    IT 

 










Legend :    VFR   Marginal VFR   IFR   Intensive IFR   Very Intensive IFR
Visi :
Ceiling :
>= 8 km
>= 3000ft
5 to 8 km
1000 to 3000 ft
1500m to 5 km
500 to 1000 ft
800 to 1500m
200 to 500 ft
< 800m
< 200 ft
Symbols :   Thunderstorms  Fog  Heavy snow  Heavy precipitations  Wind > 20 kt
SIGMETs :     Misc.  Thunderstorms  Icing  Turbulence  Mountain Waves  Volcanic Ashes







- Airport Elevation : 171 ft
- IATA code : EGC
- Download approach charts


LFBE - Bergerac

CURRENT METAR :
  • 262100Z AUTO 30005KT 9999 BKN024 OVC034 16/12 Q1019

EXPIRED METARs :
  • 262030Z AUTO 30008KT 9999 OVC033 17/12 Q1019
  • 262000Z AUTO 29011KT 9999 OVC034 17/12 Q1018 NOSIG
  • 261930Z AUTO 28011KT 9999 BKN032 OVC038 18/13 Q1018 NOSIG
  • 261900Z AUTO 30010KT 9999 BKN035 BKN043 BKN072 18/13 Q1018 NOSIG
  • 261830Z AUTO 30011KT CAVOK 20/13 Q1018 NOSIG
  • 261800Z AUTO 29009KT CAVOK 20/12 Q1018 NOSIG

TAF TAF LFBE
Valid from the 26 at 12:00 until the 27 at 12:00 UTC


261100Z 2612/2712 29008KT 9999 BKN030
TEMPO 2703/2712 4000 RA OVC010
No reported NOTAMs for that airfield.



MET'MAP, your aeronautical weather chart ! - Copyright ORBIFLY December 2007 - Disclaimer

ORBIFLY MET'MAP TEAM :

Programming & Development : Alexandra Zaïnal
Concept & Development : Baudouin d'Aumeries
Co-Development & Prog : Marc-Olivier Méhu
Technical & hardware support : Manuel Goepfert

Contact : metmap@orbifly.com




SOURCES & CREDITS :

   NOAA